Time;durP1;ratioP1;P1;durP2;ratioP2;P2;SDS_P1;SDS_P2;PMS_P1;PMS_P2;Temp;Humidity;BMP_temperature;BMP_pressure;BME280_temperature;BME280_humidity;BME280_pressure;Samples;Min_cycle;Max_cycle;Signal;HPM_P1;HPM_P2
2021/03/05 00:01:55;;;;;;;9.10;5.17;;;1.60;94.70;;;;;;5011224;28;20203;-82
2021/03/05 00:04:23;;;;;;;11.13;4.93;;;1.50;94.70;;;;;;5035354;28;20194;-81
2021/03/05 00:06:51;;;;;;;8.53;4.73;;;1.50;94.60;;;;;;5023209;28;20234;-83
2021/03/05 00:09:19;;;;;;;5.43;3.47;;;1.60;93.90;;;;;;5016719;28;20203;-82
2021/03/05 00:11:46;;;;;;;6.83;3.93;;;1.60;93.90;;;;;;5024727;28;20196;-83
2021/03/05 00:14:14;;;;;;;11.77;4.40;;;1.60;93.70;;;;;;5031540;28;20227;-81
2021/03/05 00:16:41;;;;;;;9.97;5.00;;;1.50;93.80;;;;;;5046225;28;20183;-80
2021/03/05 00:19:09;;;;;;;9.60;5.00;;;1.50;93.70;;;;;;5041156;28;20207;-82
2021/03/05 00:21:36;;;;;;;9.63;4.40;;;1.50;93.90;;;;;;5016089;28;20201;-80
2021/03/05 00:24:06;;;;;;;8.43;4.27;;;1.60;93.70;;;;;;5017830;28;20654;-82
2021/03/05 00:26:35;;;;;;;11.63;4.20;;;1.50;93.80;;;;;;5012722;28;20227;-82
2021/03/05 00:29:02;;;;;;;7.70;3.90;;;1.40;93.40;;;;;;5014854;28;20831;-82
2021/03/05 00:31:30;;;;;;;9.03;3.50;;;1.40;93.00;;;;;;5011636;28;20221;-81
2021/03/05 00:33:58;;;;;;;6.33;3.00;;;1.40;92.90;;;;;;5011963;28;20199;-81
2021/03/05 00:36:25;;;;;;;8.90;3.30;;;1.30;92.50;;;;;;5021164;28;20688;-81
2021/03/05 00:38:53;;;;;;;7.83;3.50;;;1.30;92.40;;;;;;5016850;28;20202;-82
2021/03/05 00:41:21;;;;;;;9.43;3.10;;;1.30;92.40;;;;;;5022725;28;20643;-82
2021/03/05 00:43:49;;;;;;;6.10;3.33;;;1.30;92.50;;;;;;5018844;28;20546;-81
2021/03/05 00:46:17;;;;;;;7.13;3.40;;;1.30;92.50;;;;;;5021976;28;20230;-82
2021/03/05 00:48:45;;;;;;;4.93;3.10;;;1.20;92.40;;;;;;5034823;28;20410;-80
2021/03/05 00:51:12;;;;;;;3.90;2.47;;;1.20;92.50;;;;;;5019167;28;20247;-81
2021/03/05 00:53:40;;;;;;;5.87;2.90;;;1.20;92.30;;;;;;5034393;28;20586;-81
2021/03/05 00:56:07;;;;;;;7.43;3.17;;;1.20;92.30;;;;;;5023091;28;20774;-80
2021/03/05 00:58:35;;;;;;;5.93;3.13;;;1.10;92.60;;;;;;5019332;28;20671;-82
2021/03/05 01:01:04;;;;;;;5.93;3.17;;;1.10;92.10;;;;;;5019604;28;20549;-83
2021/03/05 01:03:32;;;;;;;6.17;3.00;;;1.00;92.30;;;;;;5015820;28;20202;-82
2021/03/05 01:06:13;;;;;;;7.73;3.00;;;1.00;92.70;;;;;;5028192;28;20372;-80
2021/03/05 01:08:40;;;;;;;8.20;3.40;;;0.90;92.90;;;;;;5025353;28;20203;-82
2021/03/05 01:11:08;;;;;;;7.37;3.90;;;0.90;93.20;;;;;;5030284;28;20287;-80
2021/03/05 01:13:35;;;;;;;8.40;3.80;;;0.90;93.60;;;;;;5041542;28;20217;-82
2021/03/05 01:16:04;;;;;;;7.17;3.30;;;0.90;93.80;;;;;;5028296;28;20222;-80
2021/03/05 01:18:32;;;;;;;6.93;3.87;;;0.90;94.20;;;;;;5035369;28;20197;-81
2021/03/05 01:21:00;;;;;;;5.23;3.33;;;0.90;94.00;;;;;;5031023;28;20240;-83
2021/03/05 01:23:27;;;;;;;6.30;3.60;;;0.70;94.10;;;;;;5040843;28;20191;-80
2021/03/05 01:25:56;;;;;;;5.60;3.30;;;0.90;94.50;;;;;;5039897;28;20520;-82
2021/03/05 01:28:24;;;;;;;10.00;5.47;;;0.90;94.40;;;;;;5023410;28;20194;-81
2021/03/05 01:30:51;;;;;;;9.17;5.97;;;0.80;93.80;;;;;;5041760;28;20191;-82
2021/03/05 01:33:20;;;;;;;10.83;4.87;;;0.90;93.70;;;;;;5020040;28;20330;-78
2021/03/05 01:35:47;;;;;;;6.90;3.03;;;0.90;93.30;;;;;;5023065;28;20663;-83
2021/03/05 01:38:16;;;;;;;7.70;4.00;;;0.90;93.50;;;;;;5033560;28;20213;-80
2021/03/05 01:40:45;;;;;;;8.13;3.87;;;0.90;93.70;;;;;;5028898;28;20199;-82
2021/03/05 01:43:16;;;;;;;7.07;3.60;;;0.90;93.70;;;;;;5033513;28;20183;-81
2021/03/05 01:45:44;;;;;;;7.63;3.73;;;0.90;94.00;;;;;;5026403;28;20209;-80
2021/03/05 01:48:14;;;;;;;6.83;4.60;;;0.90;94.20;;;;;;5024026;28;20184;-82
2021/03/05 01:50:51;;;;;;;7.47;3.50;;;0.90;93.90;;;;;;5041025;28;20202;-81
2021/03/05 01:53:18;;;;;;;7.70;3.80;;;0.80;94.20;;;;;;5034860;28;20195;-81
2021/03/05 01:55:46;;;;;;;7.97;4.13;;;0.80;94.20;;;;;;5040364;28;20199;-80
2021/03/05 01:58:14;;;;;;;8.80;5.93;;;0.90;93.80;;;;;;5032713;28;20208;-80
2021/03/05 02:00:44;;;;;;;8.30;4.63;;;0.90;93.60;;;;;;5033222;28;20195;-82
2021/03/05 02:03:12;;;;;;;12.67;5.33;;;0.90;93.70;;;;;;5015611;28;20270;-80
2021/03/05 02:05:41;;;;;;;11.77;6.90;;;0.80;93.60;;;;;;5012095;28;20294;-82
2021/03/05 02:08:10;;;;;;;10.50;7.33;;;0.90;93.40;;;;;;5028671;28;20594;-81
2021/03/05 02:10:38;;;;;;;7.43;5.20;;;0.80;93.40;;;;;;5019847;28;20202;-82
2021/03/05 02:13:06;;;;;;;6.47;3.70;;;0.90;93.50;;;;;;5019631;28;20698;-82
2021/03/05 02:15:35;;;;;;;9.87;4.33;;;0.90;93.60;;;;;;5014830;28;20198;-80
2021/03/05 02:18:11;;;;;;;8.70;4.73;;;0.60;93.70;;;;;;5025888;28;20273;-81
2021/03/05 02:20:54;;;;;;;10.90;5.47;;;0.90;94.20;;;;;;5025549;28;20201;-82
2021/03/05 02:23:59;;;;;;;10.23;5.50;;;0.80;94.60;;;;;;5018959;28;20195;-82
2021/03/05 02:26:54;;;;;;;8.80;4.73;;;0.80;94.50;;;;;;5020673;28;20229;-81
2021/03/05 02:29:57;;;;;;;10.33;5.17;;;0.70;94.70;;;;;;5014504;28;20439;-82
2021/03/05 02:32:34;;;;;;;5.33;3.70;;;0.70;95.30;;;;;;5007499;28;20448;-81
2021/03/05 02:35:03;;;;;;;6.80;4.00;;;0.80;95.00;;;;;;5015167;28;20208;-81
2021/03/05 02:37:34;;;;;;;5.73;3.93;;;0.80;94.30;;;;;;5021996;28;20465;-81
2021/03/05 02:40:07;;;;;;;5.47;3.40;;;0.80;94.00;;;;;;5012062;28;20195;-83
2021/03/05 02:42:41;;;;;;;7.27;3.03;;;0.90;93.70;;;;;;5017401;28;20598;-81
2021/03/05 02:45:11;;;;;;;6.97;3.37;;;0.80;93.40;;;;;;5026673;28;20213;-81
2021/03/05 02:47:43;;;;;;;6.53;3.50;;;0.90;93.60;;;;;;5017929;28;20356;-82
2021/03/05 02:50:14;;;;;;;3.97;3.30;;;0.80;93.60;;;;;;5025059;28;20195;-80
2021/03/05 02:52:43;;;;;;;8.20;2.80;;;0.70;93.60;;;;;;5007721;28;20218;-81
2021/03/05 02:55:13;;;;;;;9.50;3.60;;;0.70;93.90;;;;;;5040168;28;20199;-82
2021/03/05 02:57:44;;;;;;;3.27;1.93;;;0.70;93.80;;;;;;5043508;28;20200;-80
2021/03/05 03:00:14;;;;;;;6.57;3.90;;;0.70;93.50;;;;;;5032912;28;20210;-81
2021/03/05 03:02:44;;;;;;;9.13;3.40;;;0.70;93.40;;;;;;5036563;28;20195;-81
2021/03/05 03:05:13;;;;;;;5.43;2.80;;;0.70;93.40;;;;;;5025075;28;20497;-82
2021/03/05 03:07:49;;;;;;;3.73;2.33;;;0.70;93.20;;;;;;5032444;28;20228;-81
2021/03/05 03:10:20;;;;;;;6.13;2.87;;;0.70;93.30;;;;;;5027242;28;20194;-81
2021/03/05 03:12:51;;;;;;;5.87;3.07;;;0.60;93.20;;;;;;5026413;28;20198;-82
2021/03/05 03:15:20;;;;;;;5.03;2.90;;;0.60;93.40;;;;;;5022187;28;20202;-81
2021/03/05 03:17:50;;;;;;;6.97;3.10;;;0.50;93.40;;;;;;5024686;28;20425;-82
2021/03/05 03:20:20;;;;;;;5.20;2.50;;;0.60;93.30;;;;;;5027291;28;20202;-82
2021/03/05 03:22:48;;;;;;;5.43;2.73;;;0.50;93.50;;;;;;5024727;28;20198;-81
2021/03/05 03:25:16;;;;;;;5.57;3.20;;;0.50;93.70;;;;;;5023426;28;20617;-82
2021/03/05 03:27:44;;;;;;;5.07;3.07;;;0.40;93.70;;;;;;5023418;28;20267;-82
2021/03/05 03:30:14;;;;;;;5.03;2.80;;;0.40;94.00;;;;;;5017535;28;20191;-81
2021/03/05 03:32:42;;;;;;;4.77;3.00;;;0.40;94.00;;;;;;5024242;28;20234;-80
2021/03/05 03:35:13;;;;;;;9.63;3.33;;;0.30;94.20;;;;;;5024484;28;20206;-79
2021/03/05 03:37:41;;;;;;;2.10;1.73;;;0.30;94.30;;;;;;5026437;28;20205;-82
2021/03/05 03:40:12;;;;;;;5.63;2.93;;;0.20;95.00;;;;;;5026808;28;20450;-80
2021/03/05 03:42:40;;;;;;;3.70;2.47;;;0.10;94.80;;;;;;5025515;28;20442;-82
2021/03/05 03:45:11;;;;;;;7.87;3.00;;;0.20;94.70;;;;;;5018633;28;20236;-81
2021/03/05 03:47:39;;;;;;;5.03;2.20;;;0.20;95.00;;;;;;5017281;28;20221;-81
2021/03/05 03:50:14;;;;;;;10.07;3.53;;;0.20;95.30;;;;;;5017476;28;20194;-82
2021/03/05 03:52:46;;;;;;;4.27;2.80;;;0.10;95.40;;;;;;5027626;28;20232;-81
2021/03/05 03:55:13;;;;;;;7.10;2.70;;;0.00;95.60;;;;;;5022696;28;20197;-80
2021/03/05 03:57:44;;;;;;;2.80;2.37;;;0.10;96.00;;;;;;5026906;28;20574;-81
2021/03/05 04:00:14;;;;;;;5.90;2.47;;;0.00;96.00;;;;;;5020738;28;20197;-82
2021/03/05 04:02:45;;;;;;;5.20;3.23;;;0.00;96.00;;;;;;5030231;28;20273;-82
2021/03/05 04:05:17;;;;;;;6.83;3.17;;;-0.10;96.20;;;;;;5033568;28;20209;-81
2021/03/05 04:07:46;;;;;;;5.03;2.80;;;-0.10;96.40;;;;;;5027568;28;20314;-82
2021/03/05 04:10:16;;;;;;;6.23;3.07;;;-0.10;96.80;;;;;;5037483;28;20189;-82
2021/03/05 04:12:45;;;;;;;6.97;3.03;;;-0.20;96.70;;;;;;5018943;28;20200;-81
2021/03/05 04:15:14;;;;;;;9.27;3.67;;;-0.20;97.00;;;;;;5027556;28;20451;-82
2021/03/05 04:17:41;;;;;;;8.03;3.37;;;-0.30;97.50;;;;;;5020173;28;20212;-83
2021/03/05 04:20:13;;;;;;;7.80;3.20;;;-0.20;97.40;;;;;;5014198;28;20200;-80
2021/03/05 04:22:42;;;;;;;5.77;3.00;;;-0.30;97.40;;;;;;4997957;28;20268;-81
2021/03/05 04:25:12;;;;;;;9.07;3.40;;;-0.30;97.60;;;;;;5011162;28;20209;-82
2021/03/05 04:27:40;;;;;;;5.87;3.10;;;-0.40;98.00;;;;;;5016721;28;20227;-81
2021/03/05 04:30:09;;;;;;;5.53;3.30;;;-0.30;98.50;;;;;;5009910;28;20506;-83
2021/03/05 04:32:39;;;;;;;6.97;3.53;;;-0.30;98.70;;;;;;5019844;28;20206;-82
2021/03/05 04:35:08;;;;;;;8.13;3.50;;;-0.30;98.50;;;;;;5018837;28;20209;-81
2021/03/05 04:37:35;;;;;;;9.53;3.77;;;-0.30;98.10;;;;;;5006975;28;20195;-82
2021/03/05 04:40:06;;;;;;;5.43;3.23;;;-0.30;98.40;;;;;;5014094;28;20613;-80
2021/03/05 04:42:34;;;;;;;7.33;3.47;;;-0.30;98.70;;;;;;5017289;28;20197;-79
2021/03/05 04:45:02;;;;;;;9.33;3.60;;;-0.30;98.40;;;;;;5018658;28;20723;-81
2021/03/05 04:47:30;;;;;;;8.37;3.33;;;-0.30;98.30;;;;;;5017991;28;20227;-83
2021/03/05 04:49:57;;;;;;;8.57;3.53;;;-0.30;98.10;;;;;;5013344;28;20586;-81
2021/03/05 04:52:25;;;;;;;8.13;3.70;;;-0.30;98.10;;;;;;5019570;28;20204;-82
2021/03/05 04:54:53;;;;;;;6.90;3.77;;;-0.10;98.20;;;;;;4993002;28;20694;-81
2021/03/05 04:57:21;;;;;;;9.70;4.23;;;-0.40;98.50;;;;;;5018616;28;20236;-81
2021/03/05 04:59:49;;;;;;;7.73;3.60;;;-0.40;98.60;;;;;;5015313;28;20216;-82
2021/03/05 05:02:16;;;;;;;8.13;4.30;;;-0.40;98.50;;;;;;5014720;28;20204;-82
2021/03/05 05:04:44;;;;;;;5.50;2.10;;;-0.50;98.80;;;;;;5016166;28;20216;-81
2021/03/05 05:07:11;;;;;;;6.67;3.07;;;-0.40;99.90;;;;;;5016840;28;20224;-80
2021/03/05 05:09:39;;;;;;;7.93;3.60;;;-0.20;99.60;;;;;;5016666;28;20251;-80
2021/03/05 05:12:07;;;;;;;8.00;4.33;;;-0.30;99.00;;;;;;5023732;28;20204;-82
2021/03/05 05:14:35;;;;;;;5.47;4.00;;;-0.30;99.00;;;;;;5008403;28;20570;-82
2021/03/05 05:17:03;;;;;;;8.00;4.20;;;-0.30;98.80;;;;;;5017996;28;20216;-80
2021/03/05 05:19:31;;;;;;;6.30;4.10;;;-0.30;98.50;;;;;;5012147;28;20199;-81
2021/03/05 05:21:59;;;;;;;7.07;4.20;;;-0.30;98.20;;;;;;5017291;28;20912;-81
2021/03/05 05:24:28;;;;;;;8.20;4.17;;;-0.40;98.20;;;;;;5020277;28;20197;-81
2021/03/05 05:26:56;;;;;;;8.03;4.43;;;-0.30;98.40;;;;;;5008825;28;20258;-80
2021/03/05 05:29:24;;;;;;;7.73;4.30;;;-0.30;98.20;;;;;;5020211;28;20270;-81
2021/03/05 05:31:52;;;;;;;7.23;4.30;;;-0.30;98.10;;;;;;5006603;28;20440;-81
2021/03/05 05:34:20;;;;;;;8.53;4.10;;;-0.30;98.40;;;;;;5026368;28;20431;-80
2021/03/05 05:36:47;;;;;;;12.80;4.80;;;-0.30;98.50;;;;;;5032090;28;20193;-82
2021/03/05 05:39:15;;;;;;;8.33;4.90;;;-0.30;98.00;;;;;;5041994;28;20184;-79
2021/03/05 05:41:44;;;;;;;8.23;4.53;;;-0.30;97.70;;;;;;5029936;28;20276;-80
2021/03/05 05:44:11;;;;;;;7.90;4.40;;;-0.20;97.70;;;;;;5018586;28;20409;-80
2021/03/05 05:46:40;;;;;;;8.83;4.77;;;-0.40;97.70;;;;;;5014651;28;20612;-80
2021/03/05 05:49:10;;;;;;;3.40;2.53;;;-0.30;97.90;;;;;;5011989;28;21575;-81
2021/03/05 05:51:40;;;;;;;9.83;4.73;;;-0.40;97.40;;;;;;5014999;28;20287;-81
2021/03/05 05:54:09;;;;;;;7.43;4.43;;;-0.30;97.00;;;;;;5013451;28;20691;-80
2021/03/05 05:56:39;;;;;;;10.50;4.90;;;-0.30;96.60;;;;;;5018866;28;20209;-79
2021/03/05 05:59:08;;;;;;;7.67;5.10;;;-0.40;96.30;;;;;;5016839;28;20205;-78
2021/03/05 06:01:36;;;;;;;11.47;4.43;;;-0.40;96.70;;;;;;4999693;28;20354;-80
2021/03/05 06:04:05;;;;;;;9.30;4.67;;;-0.40;96.90;;;;;;5008106;28;20204;-81
2021/03/05 06:06:34;;;;;;;10.60;5.67;;;-0.40;97.30;;;;;;4997424;28;20209;-80
2021/03/05 06:09:03;;;;;;;7.57;5.30;;;-0.30;97.20;;;;;;5013149;28;20199;-80
2021/03/05 06:11:34;;;;;;;10.33;5.40;;;-0.30;97.10;;;;;;5017154;28;20574;-79
2021/03/05 06:14:03;;;;;;;11.70;6.43;;;-0.30;97.20;;;;;;5008441;28;20524;-80
2021/03/05 06:16:31;;;;;;;8.50;5.00;;;-0.30;96.70;;;;;;5005196;28;20242;-80
2021/03/05 06:19:00;;;;;;;7.37;4.80;;;-0.30;96.30;;;;;;5011821;28;20288;-81
2021/03/05 06:21:39;;;;;;;11.87;4.83;;;-0.20;96.50;;;;;;4998215;28;20214;-81
2021/03/05 06:24:09;;;;;;;7.60;4.97;;;-0.20;96.60;;;;;;4999950;28;20211;-80
2021/03/05 06:26:55;;;;;;;8.40;4.97;;;-0.20;96.50;;;;;;5003148;28;20238;-79
2021/03/05 06:29:24;;;;;;;9.00;4.90;;;-0.30;96.70;;;;;;5012531;28;20217;-81
2021/03/05 06:31:58;;;;;;;10.17;5.60;;;-0.10;96.60;;;;;;5007057;28;20198;-79
2021/03/05 06:34:27;;;;;;;8.57;5.23;;;-0.10;95.50;;;;;;5011657;28;20206;-83
2021/03/05 06:37:00;;;;;;;9.80;5.57;;;0.00;95.10;;;;;;4991679;28;20242;-81
2021/03/05 06:39:28;;;;;;;9.57;5.50;;;0.10;95.10;;;;;;5011729;28;20391;-81
2021/03/05 06:42:01;;;;;;;11.13;5.27;;;0.00;94.70;;;;;;5030609;28;20210;-81
2021/03/05 06:44:30;;;;;;;8.57;5.37;;;0.10;94.50;;;;;;5028231;28;20212;-83
2021/03/05 06:47:07;;;;;;;8.77;5.80;;;0.00;94.50;;;;;;5019876;28;20554;-81
2021/03/05 06:49:35;;;;;;;9.93;5.90;;;0.20;94.20;;;;;;5028353;28;20221;-80
2021/03/05 06:52:04;;;;;;;9.57;5.80;;;-0.10;94.30;;;;;;5009321;28;20207;-81
2021/03/05 06:54:34;;;;;;;11.77;6.07;;;0.00;94.20;;;;;;4998667;28;20564;-81
2021/03/05 06:57:03;;;;;;;10.03;6.50;;;0.00;94.50;;;;;;5010867;28;20340;-81
2021/03/05 06:59:37;;;;;;;11.67;6.67;;;0.00;94.40;;;;;;5013434;28;20457;-81
2021/03/05 07:02:06;;;;;;;11.90;6.57;;;0.10;94.20;;;;;;5003174;28;20203;-80
2021/03/05 07:04:35;;;;;;;8.13;5.47;;;0.30;93.60;;;;;;5000242;28;20198;-79
2021/03/05 07:07:06;;;;;;;11.50;6.83;;;0.40;92.90;;;;;;5019191;28;20242;-81
2021/03/05 07:09:36;;;;;;;8.50;5.33;;;0.40;92.30;;;;;;5010830;28;20306;-82
2021/03/05 07:12:08;;;;;;;12.83;5.80;;;0.50;92.60;;;;;;5015375;28;20210;-82
2021/03/05 07:14:37;;;;;;;8.27;5.40;;;0.60;92.00;;;;;;5012362;28;20219;-83
2021/03/05 07:17:06;;;;;;;12.33;6.50;;;0.70;91.70;;;;;;5004320;28;20479;-82
2021/03/05 07:19:35;;;;;;;11.47;5.90;;;0.80;91.50;;;;;;5016805;28;20199;-78
2021/03/05 07:22:06;;;;;;;10.60;6.13;;;0.80;91.10;;;;;;5006224;28;20221;-80
2021/03/05 07:24:37;;;;;;;9.83;5.40;;;1.00;90.70;;;;;;5007507;28;20566;-81
2021/03/05 07:27:07;;;;;;;8.80;5.40;;;1.00;90.60;;;;;;5004646;28;20238;-80
2021/03/05 07:29:36;;;;;;;10.43;5.50;;;1.00;90.70;;;;;;5017260;28;20199;-80
2021/03/05 07:32:07;;;;;;;7.33;5.00;;;1.20;90.80;;;;;;5011273;28;20195;-80
2021/03/05 07:34:46;;;;;;;8.40;4.63;;;1.10;90.60;;;;;;5002275;28;20203;-81
2021/03/05 07:37:17;;;;;;;7.27;5.07;;;1.30;90.20;;;;;;4996023;28;20764;-84
2021/03/05 07:39:48;;;;;;;10.53;5.27;;;1.30;90.00;;;;;;4994304;28;20195;-82
2021/03/05 07:42:18;;;;;;;11.70;4.90;;;1.20;90.10;;;;;;4996809;28;20919;-81
2021/03/05 07:44:46;;;;;;;8.53;4.13;;;1.30;90.20;;;;;;4992952;28;20295;-81
2021/03/05 07:47:16;;;;;;;10.20;5.53;;;1.20;90.20;;;;;;5004651;28;20368;-81
2021/03/05 07:49:45;;;;;;;9.03;5.70;;;1.20;90.50;;;;;;4998964;28;20206;-80
2021/03/05 07:52:13;;;;;;;7.33;4.80;;;1.30;90.30;;;;;;4990873;28;20207;-81
2021/03/05 07:54:51;;;;;;;9.03;5.67;;;1.30;90.00;;;;;;5000043;28;20585;-82
2021/03/05 07:57:49;;;;;;;10.20;5.10;;;1.40;90.00;;;;;;4998774;28;20622;-81
2021/03/05 08:00:36;;;;;;;9.07;5.33;;;1.40;88.60;;;;;;4995511;28;20208;-81
2021/03/05 08:03:06;;;;;;;11.73;6.00;;;1.40;89.60;;;;;;4998736;28;20216;-82
2021/03/05 08:05:42;;;;;;;10.10;5.77;;;1.50;89.20;;;;;;5007276;28;20458;-81
2021/03/05 08:08:22;;;;;;;10.00;6.50;;;1.60;89.10;;;;;;5001516;28;20229;-81
2021/03/05 08:10:53;;;;;;;10.80;6.43;;;1.70;88.50;;;;;;4998290;28;20214;-81
2021/03/05 08:13:51;;;;;;;8.43;6.23;;;1.80;88.70;;;;;;4993167;28;20199;-80
2021/03/05 08:16:47;;;;;;;10.83;5.63;;;2.00;87.90;;;;;;5000317;28;20195;-80
2021/03/05 08:19:48;;;;;;;8.77;5.93;;;2.00;88.00;;;;;;5004434;28;20211;-83
2021/03/05 08:22:17;;;;;;;7.00;5.77;;;2.00;87.80;;;;;;4995805;28;20203;-79
2021/03/05 08:24:45;;;;;;;12.77;5.40;;;2.00;87.60;;;;;;5006199;28;20590;-80
2021/03/05 08:27:17;;;;;;;11.43;6.23;;;1.90;87.50;;;;;;5004672;28;20219;-82
2021/03/05 08:30:01;;;;;;;10.93;5.93;;;1.90;88.00;;;;;;5010840;28;20193;-80
2021/03/05 08:32:57;;;;;;;8.63;5.60;;;1.90;88.50;;;;;;5002067;28;20195;-82
2021/03/05 08:35:49;;;;;;;6.50;5.17;;;2.00;88.20;;;;;;5007054;28;20195;-81
2021/03/05 08:38:34;;;;;;;10.67;6.27;;;1.90;87.60;;;;;;5004141;28;20556;-78
2021/03/05 08:41:04;;;;;;;10.43;5.80;;;1.80;88.20;;;;;;4977844;28;20289;-83
2021/03/05 08:43:34;;;;;;;9.27;5.13;;;1.90;87.60;;;;;;5008790;28;20272;-82
2021/03/05 08:46:04;;;;;;;12.33;6.07;;;1.90;87.30;;;;;;5013771;28;20199;-83
2021/03/05 08:48:41;;;;;;;7.90;5.67;;;2.10;87.00;;;;;;5021102;28;20228;-83
2021/03/05 08:51:14;;;;;;;7.73;5.00;;;2.10;86.70;;;;;;5001534;28;20212;-79
2021/03/05 08:53:45;;;;;;;9.20;4.80;;;2.10;86.50;;;;;;5020694;28;20191;-81
2021/03/05 08:56:17;;;;;;;4.70;2.87;;;2.30;86.10;;;;;;5009946;28;20196;-79
2021/03/05 08:59:01;;;;;;;8.07;4.87;;;2.10;86.60;;;;;;5008872;28;20258;-83
2021/03/05 09:01:31;;;;;;;8.43;5.13;;;2.20;87.20;;;;;;5011630;28;20214;-82
2021/03/05 09:04:10;;;;;;;7.73;4.37;;;2.30;87.00;;;;;;5019644;28;20459;-81
2021/03/05 09:06:48;;;;;;;9.43;4.63;;;2.40;85.40;;;;;;5019771;28;20247;-80
2021/03/05 09:09:19;;;;;;;7.60;5.53;;;2.10;85.80;;;;;;5013559;28;20316;-82
2021/03/05 09:12:03;;;;;;;7.10;4.03;;;2.10;86.10;;;;;;5015549;28;20199;-80
2021/03/05 09:14:33;;;;;;;7.70;4.70;;;2.00;86.30;;;;;;5021473;28;20424;-82
2021/03/05 09:17:02;;;;;;;6.60;4.20;;;2.10;86.00;;;;;;5021479;28;20205;-82
2021/03/05 09:19:32;;;;;;;4.97;3.97;;;2.10;85.00;;;;;;5029769;28;20496;-83
2021/03/05 09:22:12;;;;;;;6.63;3.40;;;2.20;84.40;;;;;;5020194;28;20242;-84
2021/03/05 09:24:55;;;;;;;7.67;4.23;;;2.30;84.20;;;;;;5001881;28;20233;-82
2021/03/05 09:27:30;;;;;;;9.10;4.40;;;2.40;84.70;;;;;;5023947;28;20214;-82
2021/03/05 09:29:59;;;;;;;9.73;4.80;;;2.40;84.30;;;;;;5016531;28;20486;-83
2021/03/05 09:32:30;;;;;;;8.63;3.83;;;2.40;83.90;;;;;;5012348;28;20227;-79
2021/03/05 09:35:00;;;;;;;8.77;3.80;;;2.50;84.00;;;;;;5011559;28;20515;-83
2021/03/05 09:37:29;;;;;;;5.40;3.40;;;2.70;83.80;;;;;;5014298;28;20251;-83
2021/03/05 09:40:01;;;;;;;7.00;3.63;;;2.90;82.80;;;;;;4996641;28;20201;-81
2021/03/05 09:42:51;;;;;;;5.97;2.97;;;3.00;82.80;;;;;;5010679;28;20193;-83
2021/03/05 09:45:38;;;;;;;9.83;3.57;;;3.20;81.60;;;;;;5017738;28;20197;-83
2021/03/05 09:48:08;;;;;;;4.77;3.00;;;3.30;81.00;;;;;;4978978;28;20620;-82
2021/03/05 09:50:37;;;;;;;4.53;2.50;;;3.40;81.30;;;;;;5019505;28;20189;-81
2021/03/05 09:53:25;;;;;;;4.73;2.27;;;3.40;80.60;;;;;;5000947;28;20557;-83
2021/03/05 09:55:54;;;;;;;5.53;3.37;;;3.20;80.40;;;;;;5004978;28;20603;-79
2021/03/05 09:58:22;;;;;;;7.23;3.07;;;3.30;81.00;;;;;;5004743;28;20275;-81
2021/03/05 10:00:53;;;;;;;4.60;1.90;;;2.90;81.10;;;;;;4996557;28;20579;-82
2021/03/05 10:03:21;;;;;;;3.50;1.67;;;2.80;79.80;;;;;;5009868;28;20202;-81
2021/03/05 10:05:50;;;;;;;2.50;1.43;;;2.70;79.00;;;;;;5006563;28;20563;-81
2021/03/05 10:08:20;;;;;;;3.77;1.77;;;2.60;79.40;;;;;;5003903;28;20245;-80
2021/03/05 10:11:10;;;;;;;3.60;1.80;;;2.60;78.50;;;;;;5016029;28;21123;-84
2021/03/05 10:13:51;;;;;;;2.03;0.93;;;2.60;79.20;;;;;;5009100;28;20428;-81
2021/03/05 10:16:26;;;;;;;3.90;2.33;;;2.80;78.90;;;;;;5016507;28;20209;-81
2021/03/05 10:18:59;;;;;;;3.87;1.97;;;2.90;78.80;;;;;;5016452;28;20451;-82
2021/03/05 10:21:28;;;;;;;4.40;2.43;;;3.20;78.20;;;;;;5026345;28;21825;-82
2021/03/05 10:23:57;;;;;;;1.87;1.37;;;3.30;78.20;;;;;;5016694;28;20518;-80
2021/03/05 10:26:27;;;;;;;2.73;1.10;;;3.40;76.80;;;;;;5017035;28;20268;-79
2021/03/05 10:29:04;;;;;;;3.07;1.67;;;3.40;75.10;;;;;;5019683;28;20229;-82
2021/03/05 10:31:48;;;;;;;4.87;1.10;;;3.20;74.10;;;;;;5019338;28;20565;-83
2021/03/05 10:34:23;;;;;;;2.47;1.23;;;3.30;73.50;;;;;;5020450;28;20201;-83
2021/03/05 10:36:53;;;;;;;1.53;0.90;;;3.40;73.30;;;;;;5016085;28;20503;-82
2021/03/05 10:39:22;;;;;;;3.17;1.10;;;3.50;70.80;;;;;;5018615;28;20299;-82
2021/03/05 10:42:01;;;;;;;3.73;1.60;;;3.50;69.20;;;;;;5008567;28;20201;-82
2021/03/05 10:44:31;;;;;;;2.63;1.30;;;3.60;70.00;;;;;;5019913;28;20488;-81
2021/03/05 10:47:02;;;;;;;2.67;1.80;;;3.50;70.50;;;;;;5010921;28;20206;-81
2021/03/05 10:49:32;;;;;;;3.00;1.27;;;3.60;69.60;;;;;;5016102;28;20221;-82
2021/03/05 10:52:00;;;;;;;1.77;1.20;;;3.50;69.40;;;;;;5015314;28;20217;-82
2021/03/05 10:54:28;;;;;;;1.23;0.70;;;3.40;68.30;;;;;;5013909;28;20303;-83
2021/03/05 10:56:56;;;;;;;1.77;1.23;;;3.40;67.00;;;;;;5022516;28;20530;-82
2021/03/05 10:59:24;;;;;;;1.80;1.43;;;3.60;67.90;;;;;;5021317;28;20228;-82
2021/03/05 11:01:54;;;;;;;1.83;1.53;;;3.30;68.70;;;;;;5031047;28;20194;-83
2021/03/05 11:04:25;;;;;;;1.67;1.23;;;3.20;67.90;;;;;;5028818;28;20268;-83
2021/03/05 11:06:54;;;;;;;1.83;1.40;;;3.00;67.70;;;;;;5019506;28;20195;-83
2021/03/05 11:09:24;;;;;;;5.27;2.93;;;3.10;67.50;;;;;;5022644;28;20616;-82
2021/03/05 11:11:54;;;;;;;3.20;1.73;;;3.00;66.90;;;;;;5027935;28;20216;-81
2021/03/05 11:14:23;;;;;;;1.87;0.97;;;3.20;68.20;;;;;;5018228;28;20209;-82
2021/03/05 11:16:52;;;;;;;1.67;1.30;;;3.40;65.60;;;;;;5022942;28;20217;-82
2021/03/05 11:19:21;;;;;;;1.83;1.20;;;3.70;66.00;;;;;;5016602;28;20244;-82
2021/03/05 11:21:52;;;;;;;2.30;0.90;;;3.60;66.50;;;;;;5021456;28;20221;-81
2021/03/05 11:24:21;;;;;;;1.33;1.20;;;3.70;65.70;;;;;;5008171;28;20558;-84
2021/03/05 11:26:48;;;;;;;3.47;1.63;;;3.90;66.70;;;;;;5019981;28;20456;-82
2021/03/05 11:29:16;;;;;;;1.50;1.40;;;4.10;65.70;;;;;;5024943;28;20317;-85
2021/03/05 11:31:44;;;;;;;2.63;1.60;;;4.10;66.30;;;;;;5021607;28;20717;-81
2021/03/05 11:34:13;;;;;;;3.23;1.70;;;4.20;64.50;;;;;;5015914;28;20260;-82
2021/03/05 11:36:42;;;;;;;2.10;1.77;;;4.30;64.90;;;;;;5013608;28;20203;-82
2021/03/05 11:39:13;;;;;;;3.27;1.90;;;4.40;65.40;;;;;;5021296;28;20191;-85
2021/03/05 11:41:41;;;;;;;2.43;1.43;;;4.30;64.70;;;;;;5000012;28;20356;-83
2021/03/05 11:44:17;;;;;;;3.90;1.77;;;4.30;64.50;;;;;;5014041;28;20201;-82
2021/03/05 11:46:45;;;;;;;3.23;1.60;;;4.00;64.60;;;;;;5021702;28;20221;-81
2021/03/05 11:49:13;;;;;;;2.03;1.57;;;3.80;64.50;;;;;;5018906;28;20218;-83
2021/03/05 11:51:42;;;;;;;2.40;1.67;;;3.70;64.80;;;;;;5019958;28;20239;-82
2021/03/05 11:54:10;;;;;;;1.93;1.50;;;3.70;65.30;;;;;;5022411;28;20186;-84
2021/03/05 11:56:40;;;;;;;1.43;1.20;;;3.80;64.70;;;;;;5017272;28;20368;-83
2021/03/05 11:59:07;;;;;;;1.57;1.30;;;4.00;63.20;;;;;;5018182;28;20214;-80
2021/03/05 12:01:35;;;;;;;2.60;1.50;;;4.50;63.60;;;;;;5016767;28;20191;-83
2021/03/05 12:04:03;;;;;;;2.93;1.07;;;4.40;63.00;;;;;;5028916;28;20301;-81
2021/03/05 12:06:31;;;;;;;3.80;1.50;;;4.50;62.00;;;;;;5012010;28;20264;-83
2021/03/05 12:08:59;;;;;;;0.77;0.77;;;4.50;61.40;;;;;;5017009;28;20265;-82
2021/03/05 12:11:26;;;;;;;2.97;1.30;;;4.50;60.50;;;;;;5012812;28;20202;-81
2021/03/05 12:13:56;;;;;;;3.10;1.60;;;4.50;60.80;;;;;;5024852;28;20253;-81
2021/03/05 12:16:24;;;;;;;2.67;1.60;;;4.40;61.60;;;;;;5008414;28;20244;-82
2021/03/05 12:18:52;;;;;;;1.27;1.10;;;4.40;62.30;;;;;;5027296;28;20202;-83
2021/03/05 12:21:20;;;;;;;1.27;1.17;;;4.30;60.90;;;;;;5022430;28;20207;-84
2021/03/05 12:23:48;;;;;;;1.37;0.93;;;4.20;61.20;;;;;;5007950;28;20195;-84
2021/03/05 12:26:16;;;;;;;1.97;1.20;;;4.30;62.10;;;;;;5003876;28;20408;-82
2021/03/05 12:28:43;;;;;;;2.77;1.60;;;4.40;62.90;;;;;;5014343;28;20637;-82
2021/03/05 12:31:12;;;;;;;1.20;0.90;;;4.20;62.30;;;;;;5010542;28;20198;-83
2021/03/05 12:33:43;;;;;;;2.03;1.30;;;4.00;60.70;;;;;;5004762;28;20213;-83
2021/03/05 12:36:11;;;;;;;2.33;1.57;;;3.90;60.60;;;;;;5008228;28;20230;-82
2021/03/05 12:38:42;;;;;;;1.23;0.73;;;3.80;60.80;;;;;;5001444;28;20257;-82
2021/03/05 12:41:10;;;;;;;1.63;1.10;;;3.80;58.90;;;;;;4993984;28;20210;-81
2021/03/05 12:43:38;;;;;;;2.03;1.10;;;3.80;58.30;;;;;;5009246;28;20597;-81
2021/03/05 12:46:11;;;;;;;1.30;0.77;;;3.90;60.20;;;;;;5020526;28;20194;-83
2021/03/05 12:48:44;;;;;;;0.87;0.87;;;3.90;60.70;;;;;;5023715;28;20229;-81
2021/03/05 12:51:12;;;;;;;1.67;0.87;;;4.00;61.80;;;;;;5004060;28;20206;-80
2021/03/05 12:53:40;;;;;;;2.37;1.00;;;4.10;62.40;;;;;;4969159;28;20716;-81
2021/03/05 12:56:08;;;;;;;1.53;1.10;;;4.10;62.40;;;;;;4991804;28;20241;-82
2021/03/05 12:58:36;;;;;;;1.93;1.10;;;4.10;63.20;;;;;;5011370;28;20199;-81
2021/03/05 13:01:04;;;;;;;3.10;1.10;;;3.90;62.10;;;;;;5003779;28;20305;-81
2021/03/05 13:03:34;;;;;;;3.07;1.00;;;3.90;63.20;;;;;;4971501;28;20696;-83
2021/03/05 13:06:08;;;;;;;4.47;1.30;;;3.70;62.30;;;;;;4981320;28;20339;-80
2021/03/05 13:08:37;;;;;;;2.13;1.00;;;3.50;62.50;;;;;;5002527;28;20236;-82
2021/03/05 13:11:05;;;;;;;1.77;1.00;;;3.40;61.90;;;;;;5009548;28;20793;-81
2021/03/05 13:13:33;;;;;;;1.20;0.80;;;3.30;60.60;;;;;;5004481;28;20262;-83